LFLE weather

Chambéry-Challes-les-Eaux Airport
Chambéry/Challes-les-Eaux, Rhône Alpes, France

Public forecast

Using degrees Celsius for public forecast. Weather courtesy of forecast.io.

METAR (pilot weather report)

Closest report is Chambéry-Savoie Airport, 6.1 nm (11.3 km) NW. Retrieved 2019/06/20 05:30 UTC (0 seconds ago):

LFLB 200530Z AUTO VRB02KT 9999 -RA FEW037/// SCT066/// OVC098/// ///TCU 16/15 Q1016 TEMPO VRB15G25KT 3000 TSRA BKN060CB

TAF (pilot weather forecast)

Forecast is more than 12 hours old.

Closest forecast is Chambéry-Savoie Airport, 6.1 nm (11.3 km) NW. Retrieved 2019/06/19 00:21 UTC (1 day ago):

TAF LFLB 192300Z 2000/2024 18005KT CAVOK BECMG 2006/2009 36005KT TEMPO 2000/2024 SHRA BKN080TCU PROB40 TEMPO 2000/2006 VRB15G25KT 3000 TSRA SCT014 BKN060CB PROB30 TEMPO 2012/2016 4000 TSRA BKN060CB